Time;durP1;ratioP1;P1;durP2;ratioP2;P2;SDS_P1;SDS_P2;PMS_P1;PMS_P2;Temp;Humidity;BMP_temperature;BMP_pressure;BME280_temperature;BME280_humidity;BME280_pressure;Samples;Min_cycle;Max_cycle;Signal;HPM_P1;HPM_P2
2023/02/28 00:01:19;;;;;;;21.48;9.57;;;1.40;99.90;;;;;;5102380;28;20204;-83
2023/02/28 00:03:46;;;;;;;14.98;9.00;;;1.40;99.90;;;;;;5101464;28;20207;-81
2023/02/28 00:06:13;;;;;;;18.30;10.52;;;1.40;99.90;;;;;;5100955;28;20198;-81
2023/02/28 00:08:41;;;;;;;17.23;9.20;;;1.40;99.90;;;;;;5082822;28;20230;-81
2023/02/28 00:11:12;;;;;;;17.38;10.30;;;1.50;99.90;;;;;;5088861;28;20210;-81
2023/02/28 00:13:48;;;;;;;17.52;10.90;;;1.50;99.90;;;;;;5086543;28;20390;-81
2023/02/28 00:16:20;;;;;;;19.30;12.10;;;1.60;99.90;;;;;;5100536;28;20204;-82
2023/02/28 00:18:47;;;;;;;15.65;8.82;;;1.40;99.90;;;;;;5094091;28;20213;-82
2023/02/28 00:21:16;;;;;;;19.42;11.10;;;1.50;99.90;;;;;;5100799;28;20234;-81
2023/02/28 00:23:43;;;;;;;19.48;11.07;;;1.40;99.90;;;;;;5094050;28;20224;-81
2023/02/28 00:26:10;;;;;;;11.48;8.55;;;1.40;99.90;;;;;;5095880;28;20201;-81
2023/02/28 00:28:37;;;;;;;16.13;10.27;;;1.40;99.90;;;;;;5100502;28;20271;-82
2023/02/28 00:31:04;;;;;;;14.63;8.35;;;1.30;99.90;;;;;;5081870;28;20248;-80
2023/02/28 00:33:32;;;;;;;13.90;8.77;;;1.40;99.90;;;;;;5097092;28;20259;-81
2023/02/28 00:36:08;;;;;;;14.15;9.68;;;1.60;99.90;;;;;;5093253;28;20542;-81
2023/02/28 00:38:35;;;;;;;14.88;9.35;;;1.50;99.90;;;;;;5100308;28;20521;-81
2023/02/28 00:41:05;;;;;;;16.00;8.27;;;1.60;99.90;;;;;;5089885;28;20203;-82
2023/02/28 00:43:35;;;;;;;15.23;8.57;;;1.50;99.90;;;;;;5098889;28;20256;-81
2023/02/28 00:46:04;;;;;;;15.50;9.15;;;1.40;99.90;;;;;;5100980;28;20222;-81
2023/02/28 00:48:31;;;;;;;11.93;8.38;;;1.50;99.90;;;;;;5100610;28;20260;-79
2023/02/28 00:50:59;;;;;;;14.73;9.30;;;1.60;99.90;;;;;;5097050;28;20709;-82
2023/02/28 00:53:29;;;;;;;17.17;10.00;;;1.70;99.90;;;;;;5100117;28;20210;-80
2023/02/28 00:55:56;;;;;;;13.65;9.32;;;1.60;99.90;;;;;;5100146;28;20218;-82
2023/02/28 00:58:25;;;;;;;14.30;8.80;;;1.60;99.90;;;;;;5100826;28;20199;-81
2023/02/28 01:00:53;;;;;;;17.08;10.50;;;1.60;99.90;;;;;;5082510;28;20194;-80
2023/02/28 01:03:22;;;;;;;18.67;10.07;;;1.60;99.90;;;;;;5097697;28;20241;-81
2023/02/28 01:05:49;;;;;;;12.60;9.63;;;1.50;99.90;;;;;;5092290;28;20269;-80
2023/02/28 01:08:16;;;;;;;20.05;10.15;;;1.20;99.90;;;;;;5098550;28;20231;-80
2023/02/28 01:10:43;;;;;;;17.02;10.23;;;1.30;99.90;;;;;;5098335;28;20198;-79
2023/02/28 01:13:11;;;;;;;17.00;12.25;;;1.30;99.90;;;;;;5099297;28;20212;-80
2023/02/28 01:15:41;;;;;;;16.83;11.73;;;1.40;99.90;;;;;;5098670;28;20212;-79
2023/02/28 01:18:32;;;;;;;18.58;10.60;;;1.70;99.90;;;;;;5090997;28;20210;-82
2023/02/28 01:21:36;;;;;;;17.13;10.73;;;1.60;99.90;;;;;;5099425;28;20686;-81
2023/02/28 01:24:12;;;;;;;13.10;9.70;;;1.70;99.90;;;;;;5089578;28;20232;-80
2023/02/28 01:26:42;;;;;;;15.00;9.95;;;1.50;99.90;;;;;;5082590;28;20203;-82
2023/02/28 01:29:08;;;;;;;18.02;10.63;;;1.40;99.90;;;;;;5100157;28;20287;-81
2023/02/28 01:31:40;;;;;;;13.32;10.27;;;1.40;99.90;;;;;;5104098;28;20221;-81
2023/02/28 01:34:20;;;;;;;18.48;10.50;;;1.30;99.90;;;;;;5113916;28;20199;-80
2023/02/28 01:40:09;;;;;;;20.20;11.45;;;1.50;99.90;;;;;;5109707;28;20211;-81
2023/02/28 01:42:39;;;;;;;16.58;8.98;;;1.50;99.90;;;;;;5103940;28;20216;-80
2023/02/28 01:45:30;;;;;;;13.98;10.25;;;1.40;99.90;;;;;;5099433;28;20206;-80
2023/02/28 01:48:06;;;;;;;18.90;10.13;;;1.40;99.90;;;;;;5081265;28;20552;-82
2023/02/28 01:51:27;;;;;;;16.13;9.68;;;1.60;99.90;;;;;;5093158;28;20209;-81
2023/02/28 01:54:03;;;;;;;18.45;9.82;;;1.90;99.90;;;;;;5090854;28;20225;-80
2023/02/28 01:57:00;;;;;;;16.42;10.93;;;2.00;99.90;;;;;;5062147;28;20228;-81
2023/02/28 02:00:08;;;;;;;;;;;;;;;;;;;;;
2023/02/28 02:03:00;;;;;;;17.35;10.63;;;2.00;99.90;;;;;;5098401;28;20206;-80
2023/02/28 02:05:41;;;;;;;11.38;9.77;;;2.00;99.90;;;;;;5079983;28;20199;-81
2023/02/28 02:08:28;;;;;;;13.45;9.55;;;2.10;99.90;;;;;;5092737;28;20592;-81
2023/02/28 02:11:05;;;;;;;19.90;11.55;;;1.80;99.90;;;;;;5074954;28;20202;-81
2023/02/28 02:13:55;;;;;;;13.50;10.82;;;1.80;99.90;;;;;;5075970;28;20215;-81
2023/02/28 02:16:54;;;;;;;13.68;9.48;;;1.90;99.90;;;;;;5081614;28;20214;-80
2023/02/28 02:19:50;;;;;;;9.90;8.07;;;1.90;99.90;;;;;;5094080;28;20220;-82
2023/02/28 02:22:54;;;;;;;16.45;9.25;;;1.90;99.90;;;;;;5098316;28;20236;-80
2023/02/28 02:25:32;;;;;;;19.42;9.82;;;1.80;99.90;;;;;;5092943;28;20198;-79
2023/02/28 02:28:18;;;;;;;13.93;8.48;;;1.80;99.90;;;;;;5090873;28;20186;-81
2023/02/28 02:30:54;;;;;;;11.20;8.63;;;1.70;99.90;;;;;;5087274;28;20207;-81
2023/02/28 02:33:45;;;;;;;21.25;9.75;;;1.40;99.90;;;;;;5098151;28;20222;-81
2023/02/28 02:36:22;;;;;;;15.20;9.63;;;1.30;99.90;;;;;;5077010;28;20279;-81
2023/02/28 02:38:56;;;;;;;13.38;9.35;;;1.40;99.90;;;;;;5100796;28;20195;-81
2023/02/28 02:41:34;;;;;;;12.88;8.05;;;1.50;99.90;;;;;;5098113;28;20505;-80
2023/02/28 02:44:11;;;;;;;12.50;8.00;;;1.40;99.90;;;;;;5075973;28;20202;-80
2023/02/28 02:46:44;;;;;;;15.48;8.90;;;1.30;99.90;;;;;;5098443;28;20210;-80
2023/02/28 02:49:36;;;;;;;16.05;9.55;;;1.40;99.90;;;;;;5096064;28;20594;-82
2023/02/28 02:52:07;;;;;;;12.43;9.38;;;1.70;99.90;;;;;;5090794;28;20198;-80
2023/02/28 02:54:42;;;;;;;26.15;9.93;;;1.70;99.90;;;;;;5084530;28;20216;-81
2023/02/28 02:57:15;;;;;;;13.85;9.10;;;1.80;99.90;;;;;;5093074;28;20256;-81
2023/02/28 02:59:44;;;;;;;12.00;8.55;;;1.90;99.90;;;;;;5105283;28;20410;-82
2023/02/28 03:02:16;;;;;;;19.55;8.98;;;1.80;99.90;;;;;;5103491;28;20251;-83
2023/02/28 03:04:51;;;;;;;16.02;9.05;;;1.70;99.90;;;;;;5093233;28;20270;-81
2023/02/28 03:07:21;;;;;;;11.93;9.10;;;1.70;99.90;;;;;;5077590;28;20212;-80
2023/02/28 03:09:52;;;;;;;15.35;8.90;;;1.20;99.90;;;;;;5098505;28;20245;-79
2023/02/28 03:12:21;;;;;;;19.95;10.20;;;1.40;99.90;;;;;;5097581;28;20225;-82
2023/02/28 03:15:40;;;;;;;13.95;9.95;;;1.10;99.90;;;;;;5094218;28;20690;-80
2023/02/28 03:18:38;;;;;;;14.25;10.07;;;1.20;99.90;;;;;;5090906;28;20218;-80
2023/02/28 03:21:33;;;;;;;16.83;11.43;;;0.90;99.90;;;;;;5065694;28;20491;-79
2023/02/28 03:24:15;;;;;;;18.08;10.77;;;1.40;99.90;;;;;;5080147;28;20443;-80
2023/02/28 03:27:29;;;;;;;18.65;11.90;;;1.40;99.90;;;;;;5094199;28;20498;-81
2023/02/28 03:30:24;;;;;;;16.42;11.55;;;1.50;99.90;;;;;;5089109;28;20332;-82
2023/02/28 03:33:00;;;;;;;18.30;11.80;;;1.40;99.90;;;;;;5056647;28;20195;-80
2023/02/28 03:35:57;;;;;;;;;;;;;;;;;;;;;
2023/02/28 03:38:45;;;;;;;19.50;11.90;;;1.20;99.90;;;;;;5097190;28;20242;-80
2023/02/28 03:41:52;;;;;;;19.08;10.98;;;1.30;99.90;;;;;;5075085;28;20522;-81
2023/02/28 03:45:07;;;;;;;21.30;12.30;;;1.30;99.90;;;;;;5012919;28;20215;-81
2023/02/28 03:48:09;;;;;;;20.15;13.05;;;1.40;99.90;;;;;;5015389;28;20272;-81
2023/02/28 03:50:41;;;;;;;17.90;11.95;;;1.40;99.90;;;;;;5014347;28;20201;-81
2023/02/28 03:53:53;;;;;;;19.58;12.50;;;1.40;99.90;;;;;;5007460;28;20220;-80
2023/02/28 04:00:20;;;;;;;21.02;11.30;;;1.00;99.90;;;;;;5012185;28;20540;-80
2023/02/28 04:03:08;;;;;;;20.55;13.27;;;1.20;99.90;;;;;;5061123;28;20207;-82
2023/02/28 04:05:51;;;;;;;17.48;10.55;;;1.20;99.90;;;;;;5096839;28;20270;-84
2023/02/28 04:08:18;;;;;;;17.95;12.10;;;1.20;99.90;;;;;;5102581;28;20210;-80
2023/02/28 04:10:51;;;;;;;21.50;11.10;;;1.20;99.90;;;;;;5107256;28;20767;-80
2023/02/28 04:13:18;;;;;;;12.40;10.35;;;1.10;99.90;;;;;;5083021;28;20237;-80
2023/02/28 04:15:45;;;;;;;17.13;12.15;;;1.10;99.90;;;;;;5081530;28;20277;-81
2023/02/28 04:18:11;;;;;;;20.58;12.68;;;1.10;99.90;;;;;;5101426;28;20288;-80
2023/02/28 04:20:38;;;;;;;21.55;14.23;;;1.20;99.90;;;;;;5092672;28;20350;-80
2023/02/28 04:23:05;;;;;;;18.92;11.38;;;1.40;99.90;;;;;;5099489;28;20248;-79
2023/02/28 04:25:32;;;;;;;15.73;11.80;;;1.70;99.90;;;;;;5105093;28;20202;-80
2023/02/28 04:27:59;;;;;;;17.90;11.93;;;1.50;99.90;;;;;;5104108;28;20202;-81
2023/02/28 04:30:27;;;;;;;17.17;11.80;;;1.40;99.90;;;;;;5094998;28;20226;-80
2023/02/28 04:32:54;;;;;;;25.00;13.40;;;1.60;99.90;;;;;;5095764;28;20203;-79
2023/02/28 04:35:21;;;;;;;15.75;12.05;;;1.60;99.90;;;;;;5094179;28;20198;-81
2023/02/28 04:37:48;;;;;;;23.00;13.02;;;1.60;99.90;;;;;;5100007;28;20206;-80
2023/02/28 04:40:16;;;;;;;19.73;11.98;;;1.70;99.90;;;;;;5092095;28;20445;-78
2023/02/28 04:42:42;;;;;;;23.45;12.85;;;1.40;99.90;;;;;;5105220;28;20259;-79
2023/02/28 04:45:10;;;;;;;15.23;11.32;;;1.40;99.90;;;;;;5097100;28;20211;-79
2023/02/28 04:47:37;;;;;;;16.05;10.88;;;1.40;99.90;;;;;;5079402;28;20215;-79
2023/02/28 04:50:04;;;;;;;13.02;10.10;;;1.40;99.90;;;;;;5105179;28;20234;-80
2023/02/28 04:52:31;;;;;;;16.02;10.90;;;1.40;99.90;;;;;;5079179;28;20211;-80
2023/02/28 04:54:58;;;;;;;17.27;10.10;;;1.40;99.90;;;;;;5072859;28;20702;-79
2023/02/28 04:57:25;;;;;;;13.98;9.00;;;1.30;99.90;;;;;;5102458;28;20207;-82
2023/02/28 04:59:52;;;;;;;14.93;9.98;;;1.50;99.90;;;;;;5094259;28;20214;-83
2023/02/28 05:02:23;;;;;;;15.68;8.30;;;1.50;99.90;;;;;;5071525;28;20206;-82
2023/02/28 05:04:50;;;;;;;13.70;9.45;;;1.20;99.90;;;;;;5101282;28;20293;-81
2023/02/28 05:07:17;;;;;;;17.73;11.35;;;1.20;99.90;;;;;;5082609;28;20206;-82
2023/02/28 05:09:45;;;;;;;16.20;9.63;;;1.20;99.90;;;;;;5097980;28;20276;-81
2023/02/28 05:12:11;;;;;;;14.07;10.27;;;1.30;99.90;;;;;;5100295;28;20236;-82
2023/02/28 05:14:38;;;;;;;21.75;10.55;;;1.30;99.90;;;;;;5106358;28;20248;-80
2023/02/28 05:17:05;;;;;;;16.25;10.18;;;1.40;99.90;;;;;;5102925;28;20195;-80
2023/02/28 05:19:32;;;;;;;15.02;11.00;;;1.30;99.90;;;;;;5082045;28;20465;-82
2023/02/28 05:21:59;;;;;;;16.58;12.32;;;1.40;99.90;;;;;;5086789;28;20295;-80
2023/02/28 05:24:26;;;;;;;14.60;10.65;;;1.60;99.90;;;;;;5100281;28;20767;-79
2023/02/28 05:26:54;;;;;;;16.45;10.77;;;1.80;99.90;;;;;;5106788;28;20507;-81
2023/02/28 05:29:21;;;;;;;16.65;10.45;;;2.00;99.90;;;;;;5094076;28;20226;-80
2023/02/28 05:31:49;;;;;;;14.95;10.20;;;1.80;99.90;;;;;;5097423;28;20211;-81
2023/02/28 05:34:16;;;;;;;17.38;10.60;;;1.70;99.90;;;;;;5086875;28;20238;-80
2023/02/28 05:36:43;;;;;;;12.35;9.80;;;1.60;99.90;;;;;;5092709;28;20210;-79
2023/02/28 05:39:12;;;;;;;14.20;10.00;;;1.40;99.90;;;;;;5105388;28;20465;-80
2023/02/28 05:41:42;;;;;;;11.18;8.90;;;1.40;99.90;;;;;;5102600;28;20670;-80
2023/02/28 05:44:10;;;;;;;14.95;9.23;;;1.60;99.90;;;;;;5097444;28;20216;-82
2023/02/28 05:46:38;;;;;;;17.65;9.70;;;1.40;99.90;;;;;;5078767;28;20502;-81
2023/02/28 05:49:05;;;;;;;16.13;9.27;;;1.20;99.90;;;;;;5089761;28;20828;-80
2023/02/28 05:51:34;;;;;;;13.35;9.60;;;1.30;99.90;;;;;;5091535;28;20667;-81
2023/02/28 05:54:01;;;;;;;15.82;10.52;;;1.20;99.90;;;;;;5098756;28;20594;-80
2023/02/28 05:56:29;;;;;;;15.93;10.93;;;1.20;99.90;;;;;;5086344;28;20549;-81
2023/02/28 05:58:55;;;;;;;16.60;12.30;;;1.30;99.90;;;;;;5085181;28;20212;-81
2023/02/28 06:01:35;;;;;;;21.33;9.57;;;1.40;99.90;;;;;;5090919;28;20216;-80
2023/02/28 06:04:03;;;;;;;18.58;13.30;;;1.30;99.90;;;;;;5095693;28;20457;-81
2023/02/28 06:06:29;;;;;;;11.20;9.15;;;1.40;99.90;;;;;;5099610;28;20202;-83
2023/02/28 06:08:57;;;;;;;11.70;9.48;;;1.50;99.90;;;;;;5092763;28;20213;-82
2023/02/28 06:11:27;;;;;;;15.82;10.45;;;1.80;99.90;;;;;;5108071;28;20187;-82
2023/02/28 06:13:58;;;;;;;17.30;11.52;;;2.00;99.90;;;;;;5116566;28;20211;-84
2023/02/28 06:16:30;;;;;;;20.05;11.95;;;1.70;99.90;;;;;;5110741;28;20206;-84
2023/02/28 06:18:59;;;;;;;24.80;11.52;;;2.00;99.90;;;;;;5102939;28;20209;-82
2023/02/28 06:21:27;;;;;;;17.65;10.65;;;2.10;99.90;;;;;;5078630;28;20202;-83
2023/02/28 06:23:55;;;;;;;13.77;10.30;;;2.70;99.90;;;;;;5078707;28;20276;-85
2023/02/28 06:26:23;;;;;;;15.00;9.68;;;1.90;99.90;;;;;;5097360;28;20210;-84
2023/02/28 06:28:50;;;;;;;16.27;10.77;;;1.80;99.90;;;;;;5074192;28;20205;-84
2023/02/28 06:31:18;;;;;;;11.25;9.35;;;2.00;99.90;;;;;;5085975;28;20219;-83
2023/02/28 06:33:46;;;;;;;10.88;9.65;;;1.80;99.90;;;;;;5099284;28;20268;-83
2023/02/28 06:36:17;;;;;;;13.38;9.75;;;1.90;99.90;;;;;;5082748;28;20211;-82
2023/02/28 06:38:57;;;;;;;9.52;8.52;;;2.10;99.90;;;;;;5072553;28;20208;-84
2023/02/28 06:41:26;;;;;;;13.27;10.40;;;2.10;99.90;;;;;;5078732;28;20220;-83
2023/02/28 06:44:06;;;;;;;13.60;9.85;;;2.20;99.90;;;;;;5097486;28;20204;-83
2023/02/28 06:46:33;;;;;;;15.23;9.90;;;3.00;99.90;;;;;;5099425;28;20213;-83
2023/02/28 06:49:00;;;;;;;14.18;10.00;;;3.50;99.90;;;;;;5096343;28;20224;-83
2023/02/28 06:51:27;;;;;;;15.07;9.10;;;3.50;99.90;;;;;;5101296;28;20447;-84
2023/02/28 06:53:54;;;;;;;11.23;8.70;;;3.20;99.90;;;;;;5097254;28;20215;-83
2023/02/28 06:56:21;;;;;;;9.55;8.55;;;3.10;99.90;;;;;;5085252;28;20229;-83
2023/02/28 06:58:50;;;;;;;12.15;8.13;;;2.80;99.90;;;;;;5097970;28;20209;-82
2023/02/28 07:01:18;;;;;;;15.07;9.23;;;2.70;99.90;;;;;;5101715;28;20560;-81
2023/02/28 07:03:46;;;;;;;11.70;9.45;;;2.60;99.90;;;;;;5098674;28;20248;-83
2023/02/28 07:06:13;;;;;;;12.95;9.85;;;2.90;99.90;;;;;;5082752;28;20252;-82
2023/02/28 07:08:41;;;;;;;12.93;10.70;;;3.40;99.90;;;;;;5102819;28;20217;-82
2023/02/28 07:11:08;;;;;;;14.93;10.85;;;3.70;99.90;;;;;;5101198;28;20233;-82
2023/02/28 07:13:35;;;;;;;12.55;9.55;;;4.00;99.90;;;;;;5086066;28;20528;-83
2023/02/28 07:16:05;;;;;;;11.18;8.40;;;4.20;99.90;;;;;;5099572;28;20510;-81
2023/02/28 07:18:32;;;;;;;10.80;8.43;;;4.40;99.90;;;;;;5099668;28;20529;-82
2023/02/28 07:21:02;;;;;;;15.32;9.00;;;4.70;99.90;;;;;;5098754;28;20375;-81
2023/02/28 07:23:29;;;;;;;10.70;8.45;;;5.30;99.90;;;;;;5098857;28;20212;-81
2023/02/28 07:25:56;;;;;;;13.52;8.27;;;5.00;99.90;;;;;;5098798;28;20198;-82
2023/02/28 07:28:23;;;;;;;15.00;8.30;;;5.00;99.90;;;;;;5098499;28;20260;-84
2023/02/28 07:30:50;;;;;;;11.02;7.65;;;5.30;99.90;;;;;;5098217;28;20225;-82
2023/02/28 07:33:17;;;;;;;13.43;8.88;;;5.50;99.90;;;;;;5099044;28;20206;-81
2023/02/28 07:35:45;;;;;;;16.02;11.95;;;6.10;99.90;;;;;;5098003;28;20203;-81
2023/02/28 07:38:13;;;;;;;12.80;10.15;;;6.30;99.90;;;;;;5073145;28;20202;-81
2023/02/28 07:40:40;;;;;;;12.60;9.88;;;7.30;99.90;;;;;;5093468;28;20211;-80
2023/02/28 07:43:07;;;;;;;11.70;10.02;;;8.20;99.90;;;;;;5098365;28;20200;-82
2023/02/28 07:45:35;;;;;;;11.45;7.75;;;9.30;99.90;;;;;;5078169;28;20579;-83
2023/02/28 07:48:02;;;;;;;14.63;7.78;;;10.40;99.90;;;;;;5083245;28;20206;-83
2023/02/28 07:50:30;;;;;;;8.15;7.35;;;11.30;99.90;;;;;;5081810;28;20397;-82
2023/02/28 07:53:00;;;;;;;15.23;8.10;;;12.70;93.70;;;;;;5094569;28;20332;-82
2023/02/28 07:55:30;;;;;;;17.60;13.15;;;12.90;93.30;;;;;;5100735;28;20214;-85
2023/02/28 07:58:02;;;;;;;75.85;36.10;;;12.70;89.80;;;;;;5077213;28;20214;-82
2023/02/28 08:00:30;;;;;;;63.97;34.10;;;12.70;88.90;;;;;;5101546;28;20415;-81
2023/02/28 08:02:58;;;;;;;19.83;14.55;;;12.60;87.60;;;;;;5095742;28;20205;-81
2023/02/28 08:05:26;;;;;;;11.70;7.63;;;13.30;86.70;;;;;;5090392;28;20228;-81
2023/02/28 08:07:53;;;;;;;13.98;8.55;;;12.50;81.70;;;;;;5098912;28;20206;-80
2023/02/28 08:10:20;;;;;;;7.85;7.05;;;10.40;89.30;;;;;;5105986;28;20238;-81
2023/02/28 08:12:47;;;;;;;11.35;9.43;;;11.20;90.60;;;;;;5080430;28;20301;-82
2023/02/28 08:15:14;;;;;;;9.38;8.48;;;12.20;90.20;;;;;;5087539;28;20207;-83
2023/02/28 08:17:41;;;;;;;10.77;8.57;;;12.90;85.20;;;;;;5105028;28;20208;-82
2023/02/28 08:20:10;;;;;;;11.93;9.52;;;14.20;84.00;;;;;;5103142;28;20433;-81
2023/02/28 08:22:37;;;;;;;22.85;12.82;;;13.40;80.00;;;;;;5083870;28;20412;-81
2023/02/28 08:25:07;;;;;;;27.52;13.30;;;12.00;81.00;;;;;;5100829;28;20504;-81
2023/02/28 08:27:35;;;;;;;34.05;15.20;;;12.00;83.90;;;;;;5103681;28;20211;-80
2023/02/28 08:30:03;;;;;;;11.88;8.68;;;12.90;82.90;;;;;;5094327;28;20230;-80
2023/02/28 08:32:29;;;;;;;9.50;7.78;;;14.30;82.10;;;;;;5099905;28;20426;-79
2023/02/28 08:34:56;;;;;;;15.65;8.73;;;14.60;76.60;;;;;;5099656;28;20226;-81
2023/02/28 08:37:23;;;;;;;9.50;8.17;;;15.40;75.90;;;;;;5101468;28;20212;-84
2023/02/28 08:39:51;;;;;;;9.43;8.27;;;15.70;70.90;;;;;;5097269;28;20450;-80
2023/02/28 08:42:22;;;;;;;11.13;8.07;;;16.20;66.50;;;;;;5081112;28;20419;-80
2023/02/28 08:44:49;;;;;;;14.67;8.90;;;16.80;67.60;;;;;;5088003;28;20465;-79
2023/02/28 08:47:22;;;;;;;11.43;8.87;;;16.90;65.50;;;;;;5076088;28;20412;-80
2023/02/28 08:49:49;;;;;;;9.87;7.10;;;15.00;65.10;;;;;;5099849;28;20496;-79
2023/02/28 08:52:16;;;;;;;6.87;6.20;;;14.10;65.50;;;;;;5086402;28;20441;-80
2023/02/28 08:54:43;;;;;;;8.00;6.20;;;12.30;69.10;;;;;;5078045;28;20656;-78
2023/02/28 08:57:11;;;;;;;8.40;6.10;;;10.40;74.20;;;;;;5103886;28;21256;-81
2023/02/28 08:59:40;;;;;;;8.57;6.35;;;10.40;82.50;;;;;;5090546;28;20233;-79
2023/02/28 09:02:09;;;;;;;8.27;5.78;;;12.20;77.90;;;;;;5095896;28;20227;-80
2023/02/28 09:04:35;;;;;;;7.60;5.00;;;11.80;78.70;;;;;;5090397;28;20204;-78
2023/02/28 09:07:02;;;;;;;9.57;5.90;;;10.60;78.30;;;;;;5096318;28;20206;-79
2023/02/28 09:09:30;;;;;;;6.38;5.28;;;10.20;82.50;;;;;;5098536;28;20228;-80
2023/02/28 09:11:57;;;;;;;4.82;4.40;;;10.30;84.70;;;;;;5096254;28;20247;-78
2023/02/28 09:14:24;;;;;;;10.65;5.53;;;9.00;90.30;;;;;;5093826;28;20323;-79
2023/02/28 09:16:51;;;;;;;4.38;3.88;;;9.40;91.20;;;;;;5082501;28;20430;-81
2023/02/28 09:19:18;;;;;;;5.28;4.70;;;10.10;88.50;;;;;;5103264;28;20214;-78
2023/02/28 09:21:45;;;;;;;8.73;5.28;;;9.40;90.60;;;;;;5101568;28;20201;-81
2023/02/28 09:24:14;;;;;;;7.35;5.45;;;9.90;91.50;;;;;;5099484;28;20429;-80
2023/02/28 09:26:41;;;;;;;6.47;5.30;;;10.30;91.70;;;;;;5077623;28;20209;-80
2023/02/28 09:29:14;;;;;;;9.13;5.90;;;11.10;87.00;;;;;;5087357;28;20297;-78
2023/02/28 09:31:42;;;;;;;8.82;5.25;;;11.60;85.00;;;;;;5095357;28;20328;-80
2023/02/28 09:34:10;;;;;;;5.75;4.38;;;9.30;89.30;;;;;;5096404;28;20213;-78
2023/02/28 09:36:39;;;;;;;8.80;5.40;;;8.10;92.20;;;;;;5066335;28;20296;-80
2023/02/28 09:39:15;;;;;;;7.90;5.55;;;6.80;99.10;;;;;;5098869;28;20234;-77
2023/02/28 09:41:49;;;;;;;8.70;5.50;;;5.90;99.90;;;;;;5086923;28;20264;-80
2023/02/28 09:44:36;;;;;;;7.97;5.55;;;5.50;99.90;;;;;;5099849;28;20207;-78
2023/02/28 09:47:43;;;;;;;5.90;5.30;;;5.60;99.90;;;;;;5092456;28;20250;-80
2023/02/28 09:50:32;;;;;;;12.10;6.10;;;5.60;99.90;;;;;;5099904;28;20554;-76
2023/02/28 09:53:03;;;;;;;9.18;6.30;;;5.40;99.90;;;;;;5089258;28;20194;-79
2023/02/28 09:55:39;;;;;;;7.50;6.28;;;5.30;99.90;;;;;;5097497;28;20215;-79
2023/02/28 09:58:30;;;;;;;5.10;4.60;;;5.10;99.90;;;;;;5104773;28;20206;-79
2023/02/28 10:01:08;;;;;;;6.03;4.78;;;4.90;99.90;;;;;;5101954;28;20400;-79
2023/02/28 10:03:40;;;;;;;12.23;6.05;;;5.20;99.90;;;;;;5104817;28;20252;-77
2023/02/28 10:06:28;;;;;;;9.77;6.20;;;5.10;99.90;;;;;;5093421;28;20202;-79
2023/02/28 10:09:18;;;;;;;6.43;4.90;;;5.00;99.90;;;;;;5096049;28;20196;-79
2023/02/28 10:11:46;;;;;;;10.13;5.40;;;4.80;99.90;;;;;;5074645;28;20331;-80
2023/02/28 10:14:22;;;;;;;9.73;5.90;;;4.50;99.90;;;;;;5097841;28;20256;-78
2023/02/28 10:16:58;;;;;;;6.50;5.15;;;4.50;99.90;;;;;;5071732;28;20256;-79
2023/02/28 10:19:35;;;;;;;8.32;6.20;;;4.40;99.90;;;;;;5090112;28;20201;-79
2023/02/28 10:22:20;;;;;;;5.97;5.38;;;4.30;99.90;;;;;;5097527;28;20209;-77
2023/02/28 10:24:52;;;;;;;10.65;6.15;;;4.20;99.90;;;;;;5097455;28;20244;-79
2023/02/28 10:27:29;;;;;;;10.98;5.20;;;4.40;99.90;;;;;;5093242;28;20445;-77
2023/02/28 10:29:58;;;;;;;8.13;4.53;;;4.60;99.90;;;;;;5072462;28;20210;-77
2023/02/28 10:32:32;;;;;;;5.05;4.18;;;4.80;99.90;;;;;;5085666;28;20224;-78
2023/02/28 10:35:10;;;;;;;6.97;5.55;;;4.90;99.90;;;;;;5096897;28;20252;-78
2023/02/28 10:37:39;;;;;;;6.15;5.05;;;5.00;99.90;;;;;;5097811;28;20201;-80
2023/02/28 10:40:25;;;;;;;8.27;5.05;;;4.90;99.90;;;;;;5092134;28;20387;-78
2023/02/28 10:43:17;;;;;;;10.73;5.40;;;4.80;99.90;;;;;;5107418;28;20208;-81
2023/02/28 10:46:27;;;;;;;6.93;5.30;;;4.60;99.90;;;;;;5110752;28;20187;-81
2023/02/28 10:49:05;;;;;;;7.32;5.72;;;4.60;99.90;;;;;;5092814;28;20270;-79
2023/02/28 10:51:39;;;;;;;8.02;5.90;;;4.60;99.90;;;;;;5094300;28;20214;-79
2023/02/28 10:54:35;;;;;;;6.68;5.70;;;4.70;99.90;;;;;;5095328;28;20202;-80
2023/02/28 10:57:14;;;;;;;8.23;5.88;;;4.70;99.90;;;;;;5097550;28;20217;-78
2023/02/28 10:59:41;;;;;;;7.22;5.50;;;4.60;99.90;;;;;;5078938;28;20630;-79
2023/02/28 11:02:30;;;;;;;9.10;5.65;;;4.60;99.90;;;;;;5092377;28;20398;-80
2023/02/28 11:04:56;;;;;;;13.43;7.07;;;4.50;99.90;;;;;;5079495;28;20206;-80
2023/02/28 11:07:27;;;;;;;9.23;6.97;;;4.50;99.90;;;;;;5096683;28;20494;-79
2023/02/28 11:10:19;;;;;;;12.90;6.50;;;4.30;99.90;;;;;;5074738;28;20229;-80
2023/02/28 11:12:46;;;;;;;10.45;6.13;;;4.50;99.90;;;;;;5097877;28;20255;-79
2023/02/28 11:15:25;;;;;;;11.13;6.68;;;4.50;99.90;;;;;;5096697;28;20544;-79
2023/02/28 11:17:57;;;;;;;10.85;8.27;;;4.50;99.90;;;;;;5097373;28;20202;-78
2023/02/28 11:20:27;;;;;;;10.57;6.50;;;4.50;99.90;;;;;;5095799;28;20214;-78
2023/02/28 11:22:56;;;;;;;8.48;6.00;;;4.60;99.90;;;;;;5097723;28;20540;-80
2023/02/28 11:25:26;;;;;;;12.63;6.95;;;4.50;99.90;;;;;;5088503;28;20289;-79
2023/02/28 11:28:01;;;;;;;9.95;6.53;;;4.50;99.90;;;;;;5092550;28;20202;-79
2023/02/28 11:30:41;;;;;;;9.82;6.88;;;4.50;99.90;;;;;;5095619;28;20221;-78
2023/02/28 11:33:44;;;;;;;9.63;7.72;;;4.50;99.90;;;;;;5092087;28;20206;-79
2023/02/28 11:36:27;;;;;;;10.95;7.50;;;4.50;99.90;;;;;;5056396;28;20206;-78
2023/02/28 11:38:57;;;;;;;7.63;6.50;;;4.40;99.90;;;;;;5096440;28;20240;-79
2023/02/28 11:41:30;;;;;;;9.35;6.00;;;4.30;99.90;;;;;;5096256;28;20270;-78
2023/02/28 11:44:21;;;;;;;30.88;7.68;;;4.20;99.90;;;;;;5096281;28;20260;-77
2023/02/28 11:46:51;;;;;;;10.00;7.07;;;4.30;99.90;;;;;;5090816;28;20277;-80
2023/02/28 11:49:40;;;;;;;10.80;7.70;;;4.60;99.90;;;;;;5076967;28;20217;-80
2023/02/28 11:52:45;;;;;;;11.00;8.65;;;4.70;99.90;;;;;;5088639;28;20480;-78
2023/02/28 11:55:24;;;;;;;12.27;8.15;;;4.80;99.90;;;;;;5090106;28;20541;-80
2023/02/28 11:58:10;;;;;;;11.35;6.68;;;4.90;99.90;;;;;;5091816;28;20206;-79
2023/02/28 12:00:43;;;;;;;9.40;6.47;;;4.50;99.90;;;;;;5077781;28;20252;-78
2023/02/28 12:03:41;;;;;;;9.05;6.75;;;4.50;99.90;;;;;;5096023;28;20209;-78
2023/02/28 12:06:36;;;;;;;16.10;7.30;;;4.80;99.90;;;;;;5089429;28;20205;-81
2023/02/28 12:09:13;;;;;;;10.63;7.18;;;4.90;99.90;;;;;;5094361;28;20443;-80
2023/02/28 12:12:06;;;;;;;11.63;7.22;;;4.80;99.90;;;;;;5096568;28;20402;-79
2023/02/28 12:14:42;;;;;;;9.50;7.20;;;4.60;99.90;;;;;;5078060;28;20207;-80
2023/02/28 12:17:17;;;;;;;11.60;6.57;;;4.70;99.90;;;;;;5089216;28;20398;-78
2023/02/28 12:20:09;;;;;;;15.70;8.05;;;4.70;99.90;;;;;;5095197;28;20256;-78
2023/02/28 12:22:43;;;;;;;7.63;6.30;;;4.60;99.90;;;;;;5082537;28;20209;-79
2023/02/28 12:25:21;;;;;;;11.15;7.30;;;4.50;99.90;;;;;;5074759;28;20253;-79
2023/02/28 12:27:52;;;;;;;10.48;7.30;;;4.70;99.90;;;;;;5095751;28;20217;-79
2023/02/28 12:30:25;;;;;;;15.30;8.02;;;4.60;99.90;;;;;;5094967;28;20271;-80
2023/02/28 12:33:07;;;;;;;8.07;7.25;;;4.80;99.90;;;;;;5079671;28;20482;-79
2023/02/28 12:35:47;;;;;;;16.00;8.32;;;4.90;99.90;;;;;;5091796;28;20541;-77
2023/02/28 12:38:29;;;;;;;13.63;7.85;;;4.80;99.90;;;;;;5099119;28;20220;-78
2023/02/28 12:41:08;;;;;;;14.57;7.65;;;4.80;99.90;;;;;;5095194;28;20213;-79
2023/02/28 12:43:46;;;;;;;10.80;8.57;;;5.10;99.90;;;;;;5095195;28;20240;-81
2023/02/28 12:46:21;;;;;;;15.73;9.32;;;5.10;99.90;;;;;;5098406;28;20270;-79
2023/02/28 12:48:53;;;;;;;15.40;9.43;;;4.90;99.90;;;;;;5099048;28;20540;-80
2023/02/28 12:51:20;;;;;;;13.80;8.75;;;4.90;99.90;;;;;;5098375;28;20272;-79
2023/02/28 12:54:05;;;;;;;9.93;7.00;;;4.80;99.90;;;;;;5099399;28;20248;-80
2023/02/28 12:56:53;;;;;;;10.27;7.53;;;4.90;99.90;;;;;;5091130;28;20210;-81
2023/02/28 12:59:37;;;;;;;11.50;8.80;;;4.70;99.90;;;;;;5099747;28;20250;-80
2023/02/28 13:02:29;;;;;;;15.70;9.00;;;4.60;99.90;;;;;;5100166;28;20263;-81
2023/02/28 13:05:02;;;;;;;14.68;8.77;;;4.60;99.90;;;;;;5090295;28;20207;-80
2023/02/28 13:07:29;;;;;;;13.10;7.82;;;4.60;99.90;;;;;;5099946;28;20206;-80
2023/02/28 13:10:01;;;;;;;13.15;8.68;;;4.70;99.90;;;;;;5099187;28;20206;-79
2023/02/28 13:12:29;;;;;;;11.18;8.90;;;4.80;99.90;;;;;;5084526;28;20229;-81
2023/02/28 13:15:05;;;;;;;10.50;7.82;;;4.70;99.90;;;;;;5102257;28;20210;-81
2023/02/28 13:17:32;;;;;;;14.68;8.13;;;4.60;99.90;;;;;;5090197;28;20194;-80
2023/02/28 13:19:59;;;;;;;11.05;7.25;;;4.60;99.90;;;;;;5098700;28;20202;-80
2023/02/28 13:22:43;;;;;;;15.50;7.35;;;4.70;99.90;;;;;;5091974;28;20221;-79
2023/02/28 13:25:22;;;;;;;20.67;9.57;;;4.80;99.90;;;;;;5098170;28;20212;-80
2023/02/28 13:27:56;;;;;;;11.70;7.93;;;4.90;99.90;;;;;;5098988;28;20510;-79
2023/02/28 13:30:52;;;;;;;13.48;7.93;;;4.60;99.90;;;;;;5095624;28;20195;-79
2023/02/28 13:33:57;;;;;;;17.60;8.57;;;4.70;99.90;;;;;;5098550;28;20218;-78